Flight Track Log - Related Links

Times and Time Zones

All times are in EDT time to prevent confusion due to time zone crossing. See the SWA440 flight status page for this flight to view local times or setup timezone preferences in your user account.

Time Position Orientation Groundspeed Altitude Reporting Facility
EDT Latitude Longitude Course Direction KTS MPH feet Rate Location/Type
Mon 09:13:32 AM 41.8333 -87.7167 62° Northeast 226 260 3,100  Level Chicago TRACON
Mon 09:14:32 AM 41.8167 -87.6333 105° East 254 292 4,800 1,326 Climbing Chicago TRACON
Mon 09:14:58 AM 41.8078 -87.5928 106° East 252 290 5,000 409 Climbing Chicago Center
Mon 09:16:00 AM 41.7947 -87.4872 99° East 280 322 5,400 1,887 Climbing Chicago Center
Mon 09:17:02 AM 41.7872 -87.3750 95° East 300 345 8,900 3,339 Climbing Chicago Center
Mon 09:18:04 AM 41.7778 -87.2589 96° East 313 360 12,300 3,194 Climbing Chicago Center
Mon 09:19:06 AM 41.7675 -87.1269 96° East 352 405 15,500 3,216 Climbing Chicago Center
Mon 09:20:09 AM 41.7622 -86.9822 93° East 389 448 19,000 3,312 Climbing Chicago Center
Mon 09:21:11 AM 41.7650 -86.7975 89° East 414 476 22,400 2,758 Climbing Chicago Center
Mon 09:22:13 AM 41.7769 -86.6400 84° East 447 514 24,700 2,146 Climbing Chicago Center
Mon 09:23:14 AM 41.7944 -86.4653 82° East 471 542 26,800 2,032 Climbing Chicago Center
Mon 09:24:17 AM 41.8122 -86.2842 82° East 489 563 28,900 2,226 Climbing Chicago Center
Mon 09:25:18 AM 41.8294 -86.0981 83° East 502 578 31,400 2,000 Climbing Chicago Center
Mon 09:26:20 AM 41.8467 -85.9136 83° East 499 574 33,000 774 Climbing Chicago Center
Mon 09:27:22 AM 41.8675 -85.6956 83° East 491 565 33,000  Level Chicago Center
Mon 09:28:24 AM 41.8842 -85.5133 83° East 489 563 33,000 -581 Level Chicago Center
Mon 09:29:26 AM 41.8997 -85.3336 83° East 478 550 31,800 -1,535 Descending Chicago Center
Mon 09:29:50 AM 41.9106 -85.2547 80° East 488 562 30,800 -1,976 Descending Cleveland Center
Mon 09:30:51 AM 41.9242 -85.0742 84° East 499 574 29,000 -893 Descending Cleveland Center
Mon 09:31:51 AM 41.9394 -84.8908 84° East 499 574 29,000  Level Cleveland Center
Mon 09:32:50 AM 41.9547 -84.7047 84° East 499 574 29,000  Level Cleveland Center
Mon 09:33:50 AM 41.9717 -84.5186 83° East 499 574 29,000  Level Cleveland Center
Mon 09:34:50 AM 41.9861 -84.3322 84° East 499 574 29,000  Level Cleveland Center
Mon 09:35:50 AM 41.9936 -84.1678 86° East 499 574 29,000  Level Cleveland Center
Mon 09:36:50 AM 42.0075 -83.9869 84° East 499 574 29,000 -50 Level Cleveland Center
Mon 09:37:50 AM 42.0211 -83.8033 84° East 494 568 28,900 -1,150 Descending Cleveland Center
Mon 09:38:50 AM 42.0322 -83.6247 85° East 494 568 26,700 -2,132 Descending Cleveland Center
Mon 09:39:51 AM 42.0428 -83.4519 85° East 472 543 24,600 -2,100 Descending Cleveland Center
Mon 09:40:50 AM 42.0300 -83.2919 96° East 443 510 22,500 -1,613 Descending Cleveland Center
Mon 09:41:50 AM 42.0133 -83.1181 97° East 429 494 21,400 -1,041 Descending Cleveland Center
Mon 09:42:51 AM 41.9978 -82.9664 98° East 424 488 20,400 -1,190 Descending Cleveland Center
Mon 09:43:51 AM 41.9842 -82.8178 97° East 413 475 19,000 -1,866 Descending Cleveland Center
Mon 09:44:50 AM 41.9703 -82.6667 97° East 408 470 16,700 -2,319 Descending Cleveland Center
Mon 09:45:50 AM 41.9478 -82.5261 102° East 397 457 14,400 -2,132 Descending Cleveland Center
Mon 09:46:51 AM 41.9100 -82.4022 112° Southeast 382 440 12,400 -2,051 Descending Cleveland Center
Mon 09:47:09 AM 41.8961 -82.3628 115° Southeast 350 403 11,700 -1,932 Descending Cleveland Center
Mon 09:47:50 AM 41.8744 -82.2842 110° East 352 405 10,500 -1,010 Descending Cleveland Center
Mon 09:48:50 AM 41.8425 -82.1858 114° Southeast 317 365 10,000 -350 Descending Cleveland Center
Mon 09:49:50 AM 41.7869 -82.1286 142° Southeast 267 307 9,800 -850 Descending Cleveland Center
Mon 09:50:50 AM 41.7272 -82.0772 147° Southeast 262 302 8,300 -1,400 Descending Cleveland Center
Mon 09:51:50 AM 41.6756 -82.0286 145° Southeast 262 302 7,000 -1,091 Descending Cleveland Center
Mon 09:52:07 AM 41.6550 -82.0144 153° Southeast 253 291 6,900 -1,400 Descending Cleveland Center
Mon 09:52:50 AM 41.6181 -81.9747 141° Southeast 256 295 5,600 -1,900 Descending Cleveland Center
Mon 09:53:07 AM 41.6058 -81.9494 123° Southeast 262 302 5,000 -800 Descending Cleveland Center
Mon 09:53:50 AM 41.5939 -81.8908 105° East 236 272 4,800 -393 Descending Cleveland Center
Mon 09:54:08 AM 41.5881 -81.8631 106° East 221 254 4,600 -700 Descending Cleveland Center
Mon 09:54:50 AM 41.5592 -81.8319 141° Southeast 224 258 4,100 -800 Descending Cleveland Center
Mon 09:55:08 AM 41.5469 -81.8150 134° Southeast 173 199 3,800 -1,000 Descending Cleveland Center
Mon 09:55:50 AM 41.5222 -81.7867 139° Southeast 190 219 3,100 -689 Descending Cleveland Center
Mon 09:56:09 AM 41.5014 -81.7836 174° South 172 198 3,100 -441 Level Cleveland Center
Mon 09:56:58 AM 41.4681 -81.7747 169° South 148 170 2,600 -787 Descending Cleveland Center
Mon 09:58:11 AM 41.4344 -81.8100 218° Southwest 124 143 1,500 -904 Descending Cleveland Center
Mon 10:00:00 AM 41.4000 -81.8500 203° Southwest  Level FlightAware Approximate
Mon 10:07:00 AM 41.4094 -81.8547 203° Southwest  Level Estimated

Login

Don't have an account? Register now (free) for customized features, flight alerts, and more!